Terminal Aerodrome Forecast
Issued by NWS

Home | Current Version | Previous Version | Text Only | Print | Product List | Glossary On
Versions: 1 2 3 4 5 6 7 8 9 10 11 12 13 14
000
FTAK31 PANC 191724
TAFACD
TAF
PACD 191724Z 1918/2018 VRB06KT P6SM SCT025
     FM200300 12010KT P6SM BKN050
     FM201000 13013KT 6SM -RA BR SCT015 OVC025
     FM201600 12016G23KT 4SM -RA BR OVC015=

USA.gov is the U.S. government's official web portal to all federal, state and local government web resources and services.